sensor_id;sensor_type;location;lat;lon;timestamp;P1;durP1;ratioP1;P2;durP2;ratioP2
53401;SDS011;39295;45.534;20.034;2023-03-23T00:00:08;169.50;;;77.20;;
53401;SDS011;39295;45.534;20.034;2023-03-23T00:02:34;160.45;;;76.35;;
53401;SDS011;39295;45.534;20.034;2023-03-23T00:05:05;164.38;;;74.88;;
53401;SDS011;39295;45.534;20.034;2023-03-23T00:07:32;166.63;;;78.40;;
53401;SDS011;39295;45.534;20.034;2023-03-23T00:09:58;168.45;;;77.47;;
53401;SDS011;39295;45.534;20.034;2023-03-23T00:12:28;155.45;;;74.88;;
53401;SDS011;39295;45.534;20.034;2023-03-23T00:17:49;137.48;;;70.00;;
53401;SDS011;39295;45.534;20.034;2023-03-23T00:20:16;144.60;;;67.78;;
53401;SDS011;39295;45.534;20.034;2023-03-23T00:22:42;139.10;;;68.15;;
53401;SDS011;39295;45.534;20.034;2023-03-23T00:25:08;129.20;;;65.72;;
53401;SDS011;39295;45.534;20.034;2023-03-23T00:27:34;134.30;;;65.85;;
53401;SDS011;39295;45.534;20.034;2023-03-23T00:30:00;134.88;;;65.60;;
53401;SDS011;39295;45.534;20.034;2023-03-23T00:32:26;133.63;;;66.22;;
53401;SDS011;39295;45.534;20.034;2023-03-23T00:34:54;131.60;;;64.43;;
53401;SDS011;39295;45.534;20.034;2023-03-23T00:37:20;118.97;;;58.75;;
53401;SDS011;39295;45.534;20.034;2023-03-23T00:39:46;119.50;;;58.60;;
53401;SDS011;39295;45.534;20.034;2023-03-23T00:42:13;110.28;;;57.42;;
53401;SDS011;39295;45.534;20.034;2023-03-23T00:44:40;109.03;;;57.08;;
53401;SDS011;39295;45.534;20.034;2023-03-23T00:47:06;114.63;;;56.03;;
53401;SDS011;39295;45.534;20.034;2023-03-23T00:49:34;110.38;;;56.72;;
53401;SDS011;39295;45.534;20.034;2023-03-23T00:52:00;96.60;;;52.90;;
53401;SDS011;39295;45.534;20.034;2023-03-23T00:54:27;96.88;;;51.38;;
53401;SDS011;39295;45.534;20.034;2023-03-23T00:56:53;89.63;;;50.97;;
53401;SDS011;39295;45.534;20.034;2023-03-23T00:59:19;104.60;;;55.35;;
53401;SDS011;39295;45.534;20.034;2023-03-23T01:04:49;103.50;;;53.97;;
53401;SDS011;39295;45.534;20.034;2023-03-23T01:07:17;107.00;;;54.83;;
53401;SDS011;39295;45.534;20.034;2023-03-23T01:09:43;103.43;;;56.05;;
53401;SDS011;39295;45.534;20.034;2023-03-23T01:12:10;102.38;;;53.55;;
53401;SDS011;39295;45.534;20.034;2023-03-23T01:14:36;91.82;;;52.28;;
53401;SDS011;39295;45.534;20.034;2023-03-23T01:17:02;108.07;;;52.25;;
53401;SDS011;39295;45.534;20.034;2023-03-23T01:19:28;100.90;;;54.42;;
53401;SDS011;39295;45.534;20.034;2023-03-23T01:21:54;100.63;;;52.90;;
53401;SDS011;39295;45.534;20.034;2023-03-23T01:24:20;88.78;;;50.35;;
53401;SDS011;39295;45.534;20.034;2023-03-23T01:26:47;94.88;;;50.30;;
53401;SDS011;39295;45.534;20.034;2023-03-23T01:29:13;93.72;;;50.75;;
53401;SDS011;39295;45.534;20.034;2023-03-23T01:31:39;96.40;;;51.58;;
53401;SDS011;39295;45.534;20.034;2023-03-23T01:34:07;92.25;;;49.08;;
53401;SDS011;39295;45.534;20.034;2023-03-23T01:36:33;90.20;;;49.25;;
53401;SDS011;39295;45.534;20.034;2023-03-23T01:39:01;86.35;;;49.30;;
53401;SDS011;39295;45.534;20.034;2023-03-23T01:41:28;87.95;;;49.60;;
53401;SDS011;39295;45.534;20.034;2023-03-23T01:46:29;86.70;;;50.13;;
53401;SDS011;39295;45.534;20.034;2023-03-23T01:48:56;86.35;;;48.90;;
53401;SDS011;39295;45.534;20.034;2023-03-23T01:51:23;82.18;;;47.03;;
53401;SDS011;39295;45.534;20.034;2023-03-23T01:54:00;89.45;;;47.50;;
53401;SDS011;39295;45.534;20.034;2023-03-23T01:56:31;84.45;;;47.50;;
53401;SDS011;39295;45.534;20.034;2023-03-23T01:58:59;83.97;;;47.90;;
53401;SDS011;39295;45.534;20.034;2023-03-23T02:04:44;103.88;;;55.22;;
53401;SDS011;39295;45.534;20.034;2023-03-23T02:07:11;110.65;;;57.85;;
53401;SDS011;39295;45.534;20.034;2023-03-23T02:09:38;149.43;;;76.35;;
53401;SDS011;39295;45.534;20.034;2023-03-23T02:12:04;178.20;;;91.70;;
53401;SDS011;39295;45.534;20.034;2023-03-23T02:14:30;159.38;;;87.47;;
53401;SDS011;39295;45.534;20.034;2023-03-23T02:19:47;155.90;;;85.68;;
53401;SDS011;39295;45.534;20.034;2023-03-23T02:22:34;149.93;;;81.65;;
53401;SDS011;39295;45.534;20.034;2023-03-23T02:35:42;66.03;;;41.90;;
53401;SDS011;39295;45.534;20.034;2023-03-23T02:38:13;59.65;;;36.53;;
53401;SDS011;39295;45.534;20.034;2023-03-23T02:40:42;63.22;;;37.67;;
53401;SDS011;39295;45.534;20.034;2023-03-23T02:43:09;97.50;;;46.75;;
53401;SDS011;39295;45.534;20.034;2023-03-23T02:45:38;123.97;;;54.53;;
53401;SDS011;39295;45.534;20.034;2023-03-23T02:48:06;102.70;;;47.15;;
53401;SDS011;39295;45.534;20.034;2023-03-23T02:50:33;81.43;;;39.25;;
53401;SDS011;39295;45.534;20.034;2023-03-23T02:53:00;68.30;;;34.58;;
53401;SDS011;39295;45.534;20.034;2023-03-23T02:55:27;58.72;;;31.40;;
53401;SDS011;39295;45.534;20.034;2023-03-23T02:57:55;57.90;;;31.50;;
53401;SDS011;39295;45.534;20.034;2023-03-23T03:00:21;53.13;;;30.35;;
53401;SDS011;39295;45.534;20.034;2023-03-23T03:02:48;47.10;;;27.55;;
53401;SDS011;39295;45.534;20.034;2023-03-23T03:05:30;39.55;;;24.88;;
53401;SDS011;39295;45.534;20.034;2023-03-23T03:10:48;40.17;;;25.00;;
53401;SDS011;39295;45.534;20.034;2023-03-23T03:13:23;34.22;;;22.48;;
53401;SDS011;39295;45.534;20.034;2023-03-23T03:18:57;42.80;;;28.48;;
53401;SDS011;39295;45.534;20.034;2023-03-23T03:21:25;52.00;;;29.77;;
53401;SDS011;39295;45.534;20.034;2023-03-23T03:23:54;43.33;;;28.55;;
53401;SDS011;39295;45.534;20.034;2023-03-23T03:26:21;39.70;;;25.77;;
53401;SDS011;39295;45.534;20.034;2023-03-23T03:28:52;39.42;;;24.30;;
53401;SDS011;39295;45.534;20.034;2023-03-23T03:34:22;42.45;;;27.75;;
53401;SDS011;39295;45.534;20.034;2023-03-23T03:36:49;43.63;;;27.92;;
53401;SDS011;39295;45.534;20.034;2023-03-23T03:39:17;38.70;;;25.98;;
53401;SDS011;39295;45.534;20.034;2023-03-23T03:41:45;40.72;;;27.25;;
53401;SDS011;39295;45.534;20.034;2023-03-23T03:44:12;41.72;;;28.50;;
53401;SDS011;39295;45.534;20.034;2023-03-23T03:46:38;43.47;;;28.33;;
53401;SDS011;39295;45.534;20.034;2023-03-23T03:49:05;44.50;;;27.02;;
53401;SDS011;39295;45.534;20.034;2023-03-23T03:51:32;41.90;;;28.52;;
53401;SDS011;39295;45.534;20.034;2023-03-23T03:53:58;41.08;;;27.02;;
53401;SDS011;39295;45.534;20.034;2023-03-23T03:56:25;38.22;;;26.42;;
53401;SDS011;39295;45.534;20.034;2023-03-23T03:58:51;37.60;;;25.60;;
53401;SDS011;39295;45.534;20.034;2023-03-23T04:01:18;40.25;;;26.23;;
53401;SDS011;39295;45.534;20.034;2023-03-23T04:03:46;39.50;;;25.10;;
53401;SDS011;39295;45.534;20.034;2023-03-23T04:06:12;34.45;;;23.10;;
53401;SDS011;39295;45.534;20.034;2023-03-23T04:08:38;36.28;;;23.63;;
53401;SDS011;39295;45.534;20.034;2023-03-23T04:11:06;34.80;;;23.92;;
53401;SDS011;39295;45.534;20.034;2023-03-23T04:13:32;34.53;;;25.00;;
53401;SDS011;39295;45.534;20.034;2023-03-23T04:15:58;34.85;;;23.70;;
53401;SDS011;39295;45.534;20.034;2023-03-23T04:18:25;35.38;;;23.25;;
53401;SDS011;39295;45.534;20.034;2023-03-23T04:20:52;41.17;;;25.02;;
53401;SDS011;39295;45.534;20.034;2023-03-23T04:23:19;36.70;;;25.08;;
53401;SDS011;39295;45.534;20.034;2023-03-23T04:25:47;33.90;;;23.48;;
53401;SDS011;39295;45.534;20.034;2023-03-23T04:28:14;33.83;;;24.00;;
53401;SDS011;39295;45.534;20.034;2023-03-23T04:30:42;35.55;;;25.25;;
53401;SDS011;39295;45.534;20.034;2023-03-23T04:33:27;39.53;;;26.17;;
53401;SDS011;39295;45.534;20.034;2023-03-23T04:35:54;42.42;;;25.85;;
53401;SDS011;39295;45.534;20.034;2023-03-23T04:38:22;44.53;;;26.85;;
53401;SDS011;39295;45.534;20.034;2023-03-23T04:40:48;38.70;;;26.30;;
53401;SDS011;39295;45.534;20.034;2023-03-23T04:43:18;41.25;;;26.67;;
53401;SDS011;39295;45.534;20.034;2023-03-23T04:45:46;41.65;;;26.65;;
53401;SDS011;39295;45.534;20.034;2023-03-23T04:48:12;39.00;;;25.75;;
53401;SDS011;39295;45.534;20.034;2023-03-23T04:50:38;34.53;;;25.15;;
53401;SDS011;39295;45.534;20.034;2023-03-23T04:53:05;37.83;;;26.52;;
53401;SDS011;39295;45.534;20.034;2023-03-23T04:55:31;40.42;;;26.73;;
53401;SDS011;39295;45.534;20.034;2023-03-23T04:58:01;37.83;;;28.40;;
53401;SDS011;39295;45.534;20.034;2023-03-23T05:00:27;42.35;;;27.33;;
53401;SDS011;39295;45.534;20.034;2023-03-23T05:02:53;41.83;;;27.60;;
53401;SDS011;39295;45.534;20.034;2023-03-23T05:05:21;42.88;;;27.13;;
53401;SDS011;39295;45.534;20.034;2023-03-23T05:07:47;43.17;;;27.50;;
53401;SDS011;39295;45.534;20.034;2023-03-23T05:10:13;39.88;;;27.50;;
53401;SDS011;39295;45.534;20.034;2023-03-23T05:12:40;42.10;;;28.67;;
53401;SDS011;39295;45.534;20.034;2023-03-23T05:15:07;44.13;;;29.55;;
53401;SDS011;39295;45.534;20.034;2023-03-23T05:17:33;43.85;;;29.27;;
53401;SDS011;39295;45.534;20.034;2023-03-23T05:20:00;44.47;;;30.23;;
53401;SDS011;39295;45.534;20.034;2023-03-23T05:22:28;46.05;;;31.45;;
53401;SDS011;39295;45.534;20.034;2023-03-23T05:24:57;42.78;;;29.35;;
53401;SDS011;39295;45.534;20.034;2023-03-23T05:27:23;43.45;;;31.00;;
53401;SDS011;39295;45.534;20.034;2023-03-23T05:29:55;42.03;;;30.80;;
53401;SDS011;39295;45.534;20.034;2023-03-23T05:35:26;43.88;;;29.48;;
53401;SDS011;39295;45.534;20.034;2023-03-23T05:37:53;45.10;;;30.45;;
53401;SDS011;39295;45.534;20.034;2023-03-23T05:40:20;43.92;;;30.02;;
53401;SDS011;39295;45.534;20.034;2023-03-23T05:42:47;44.72;;;29.30;;
53401;SDS011;39295;45.534;20.034;2023-03-23T05:45:14;48.53;;;30.88;;
53401;SDS011;39295;45.534;20.034;2023-03-23T05:47:41;50.63;;;33.55;;
53401;SDS011;39295;45.534;20.034;2023-03-23T05:50:08;49.03;;;33.92;;
53401;SDS011;39295;45.534;20.034;2023-03-23T05:52:34;47.40;;;32.45;;
53401;SDS011;39295;45.534;20.034;2023-03-23T05:55:01;45.58;;;31.35;;
53401;SDS011;39295;45.534;20.034;2023-03-23T05:57:28;42.78;;;31.02;;
53401;SDS011;39295;45.534;20.034;2023-03-23T05:59:54;45.58;;;32.10;;
53401;SDS011;39295;45.534;20.034;2023-03-23T06:05:25;44.67;;;32.63;;
53401;SDS011;39295;45.534;20.034;2023-03-23T06:07:52;49.10;;;34.40;;
53401;SDS011;39295;45.534;20.034;2023-03-23T06:10:18;49.00;;;33.65;;
53401;SDS011;39295;45.534;20.034;2023-03-23T06:12:44;45.05;;;32.95;;
53401;SDS011;39295;45.534;20.034;2023-03-23T06:15:11;52.00;;;33.50;;
53401;SDS011;39295;45.534;20.034;2023-03-23T06:20:54;48.08;;;34.33;;
53401;SDS011;39295;45.534;20.034;2023-03-23T06:23:20;49.92;;;35.83;;
53401;SDS011;39295;45.534;20.034;2023-03-23T06:25:46;49.60;;;35.55;;
53401;SDS011;39295;45.534;20.034;2023-03-23T06:28:12;48.63;;;34.67;;
53401;SDS011;39295;45.534;20.034;2023-03-23T06:30:40;46.13;;;34.83;;
53401;SDS011;39295;45.534;20.034;2023-03-23T06:36:09;53.97;;;37.78;;
53401;SDS011;39295;45.534;20.034;2023-03-23T06:38:37;47.13;;;34.60;;
53401;SDS011;39295;45.534;20.034;2023-03-23T06:41:03;51.97;;;34.25;;
53401;SDS011;39295;45.534;20.034;2023-03-23T06:43:29;47.75;;;34.97;;
53401;SDS011;39295;45.534;20.034;2023-03-23T06:45:58;49.70;;;35.13;;
53401;SDS011;39295;45.534;20.034;2023-03-23T06:48:24;45.40;;;34.20;;
53401;SDS011;39295;45.534;20.034;2023-03-23T06:50:50;46.65;;;34.03;;
53401;SDS011;39295;45.534;20.034;2023-03-23T06:53:16;50.80;;;34.45;;
53401;SDS011;39295;45.534;20.034;2023-03-23T06:55:45;48.55;;;33.47;;
53401;SDS011;39295;45.534;20.034;2023-03-23T06:58:11;55.08;;;37.95;;
53401;SDS011;39295;45.534;20.034;2023-03-23T07:00:37;53.40;;;35.20;;
53401;SDS011;39295;45.534;20.034;2023-03-23T07:03:05;54.88;;;35.33;;
53401;SDS011;39295;45.534;20.034;2023-03-23T07:05:32;51.03;;;35.85;;
53401;SDS011;39295;45.534;20.034;2023-03-23T07:07:58;44.42;;;33.30;;
53401;SDS011;39295;45.534;20.034;2023-03-23T07:10:24;52.95;;;34.38;;
53401;SDS011;39295;45.534;20.034;2023-03-23T07:12:50;81.13;;;55.75;;
53401;SDS011;39295;45.534;20.034;2023-03-23T07:15:16;62.20;;;46.70;;
53401;SDS011;39295;45.534;20.034;2023-03-23T07:17:42;45.70;;;35.30;;
53401;SDS011;39295;45.534;20.034;2023-03-23T07:20:08;44.88;;;33.65;;
53401;SDS011;39295;45.534;20.034;2023-03-23T07:22:35;47.38;;;32.95;;
53401;SDS011;39295;45.534;20.034;2023-03-23T07:25:02;46.97;;;34.85;;
53401;SDS011;39295;45.534;20.034;2023-03-23T07:27:28;43.55;;;32.90;;
53401;SDS011;39295;45.534;20.034;2023-03-23T07:29:54;44.25;;;32.67;;
53401;SDS011;39295;45.534;20.034;2023-03-23T07:32:20;39.50;;;30.65;;
53401;SDS011;39295;45.534;20.034;2023-03-23T07:34:47;44.63;;;30.40;;
53401;SDS011;39295;45.534;20.034;2023-03-23T07:37:13;37.42;;;28.63;;
53401;SDS011;39295;45.534;20.034;2023-03-23T07:39:39;40.45;;;28.00;;
53401;SDS011;39295;45.534;20.034;2023-03-23T07:42:05;40.90;;;27.48;;
53401;SDS011;39295;45.534;20.034;2023-03-23T07:44:32;36.00;;;27.40;;
53401;SDS011;39295;45.534;20.034;2023-03-23T07:46:58;37.58;;;27.65;;
53401;SDS011;39295;45.534;20.034;2023-03-23T07:49:24;38.17;;;25.90;;
53401;SDS011;39295;45.534;20.034;2023-03-23T07:51:51;37.88;;;27.08;;
53401;SDS011;39295;45.534;20.034;2023-03-23T07:54:17;37.75;;;26.45;;
53401;SDS011;39295;45.534;20.034;2023-03-23T07:56:44;38.47;;;27.08;;
53401;SDS011;39295;45.534;20.034;2023-03-23T07:59:10;35.60;;;27.30;;
53401;SDS011;39295;45.534;20.034;2023-03-23T08:01:37;40.50;;;29.60;;
53401;SDS011;39295;45.534;20.034;2023-03-23T08:04:04;45.88;;;24.58;;
53401;SDS011;39295;45.534;20.034;2023-03-23T08:06:31;30.92;;;22.67;;
53401;SDS011;39295;45.534;20.034;2023-03-23T08:08:58;29.17;;;21.90;;
53401;SDS011;39295;45.534;20.034;2023-03-23T08:11:25;29.95;;;21.17;;
53401;SDS011;39295;45.534;20.034;2023-03-23T08:13:52;36.47;;;21.60;;
53401;SDS011;39295;45.534;20.034;2023-03-23T08:16:18;30.13;;;21.08;;
53401;SDS011;39295;45.534;20.034;2023-03-23T08:18:45;35.63;;;21.67;;
53401;SDS011;39295;45.534;20.034;2023-03-23T08:21:12;34.33;;;20.15;;
53401;SDS011;39295;45.534;20.034;2023-03-23T08:23:38;32.78;;;20.80;;
53401;SDS011;39295;45.534;20.034;2023-03-23T08:26:07;28.52;;;19.02;;
53401;SDS011;39295;45.534;20.034;2023-03-23T08:28:34;24.00;;;18.40;;
53401;SDS011;39295;45.534;20.034;2023-03-23T08:31:05;23.20;;;17.98;;
53401;SDS011;39295;45.534;20.034;2023-03-23T08:33:31;27.02;;;17.33;;
53401;SDS011;39295;45.534;20.034;2023-03-23T08:35:58;24.70;;;18.30;;
53401;SDS011;39295;45.534;20.034;2023-03-23T08:38:26;22.42;;;17.77;;
53401;SDS011;39295;45.534;20.034;2023-03-23T08:40:56;25.58;;;19.23;;
53401;SDS011;39295;45.534;20.034;2023-03-23T08:43:23;24.27;;;15.52;;
53401;SDS011;39295;45.534;20.034;2023-03-23T08:45:49;24.85;;;16.70;;
53401;SDS011;39295;45.534;20.034;2023-03-23T08:48:16;22.33;;;17.67;;
53401;SDS011;39295;45.534;20.034;2023-03-23T08:50:42;27.95;;;14.80;;
53401;SDS011;39295;45.534;20.034;2023-03-23T08:53:09;18.65;;;13.88;;
53401;SDS011;39295;45.534;20.034;2023-03-23T08:55:36;22.40;;;13.63;;
53401;SDS011;39295;45.534;20.034;2023-03-23T08:58:03;20.60;;;14.05;;
53401;SDS011;39295;45.534;20.034;2023-03-23T09:00:29;16.58;;;11.45;;
53401;SDS011;39295;45.534;20.034;2023-03-23T09:02:56;15.93;;;12.13;;
53401;SDS011;39295;45.534;20.034;2023-03-23T09:05:23;14.45;;;10.43;;
53401;SDS011;39295;45.534;20.034;2023-03-23T09:07:50;14.32;;;11.00;;
53401;SDS011;39295;45.534;20.034;2023-03-23T09:10:16;19.00;;;11.40;;
53401;SDS011;39295;45.534;20.034;2023-03-23T09:12:43;16.15;;;12.52;;
53401;SDS011;39295;45.534;20.034;2023-03-23T09:15:10;18.40;;;11.07;;
53401;SDS011;39295;45.534;20.034;2023-03-23T09:17:40;17.02;;;12.18;;
53401;SDS011;39295;45.534;20.034;2023-03-23T09:20:08;19.40;;;12.25;;
53401;SDS011;39295;45.534;20.034;2023-03-23T09:22:38;19.27;;;12.52;;
53401;SDS011;39295;45.534;20.034;2023-03-23T09:25:05;16.40;;;12.48;;
53401;SDS011;39295;45.534;20.034;2023-03-23T09:27:32;19.23;;;12.18;;
53401;SDS011;39295;45.534;20.034;2023-03-23T09:29:58;17.77;;;12.93;;
53401;SDS011;39295;45.534;20.034;2023-03-23T09:32:26;15.65;;;11.45;;
53401;SDS011;39295;45.534;20.034;2023-03-23T09:34:52;16.02;;;12.32;;
53401;SDS011;39295;45.534;20.034;2023-03-23T09:37:21;17.63;;;10.60;;
53401;SDS011;39295;45.534;20.034;2023-03-23T09:39:47;17.67;;;11.07;;
53401;SDS011;39295;45.534;20.034;2023-03-23T09:42:28;20.50;;;11.00;;
53401;SDS011;39295;45.534;20.034;2023-03-23T09:47:52;18.85;;;11.05;;
53401;SDS011;39295;45.534;20.034;2023-03-23T09:50:22;15.02;;;9.27;;
53401;SDS011;39295;45.534;20.034;2023-03-23T09:52:56;9.52;;;6.43;;
53401;SDS011;39295;45.534;20.034;2023-03-23T09:55:23;10.52;;;8.45;;
53401;SDS011;39295;45.534;20.034;2023-03-23T09:58:02;10.82;;;6.35;;
53401;SDS011;39295;45.534;20.034;2023-03-23T10:00:34;8.77;;;6.43;;
53401;SDS011;39295;45.534;20.034;2023-03-23T10:05:41;13.65;;;9.43;;
53401;SDS011;39295;45.534;20.034;2023-03-23T10:08:11;15.65;;;8.77;;
53401;SDS011;39295;45.534;20.034;2023-03-23T10:13:08;7.10;;;5.07;;
53401;SDS011;39295;45.534;20.034;2023-03-23T10:15:37;6.50;;;4.43;;
53401;SDS011;39295;45.534;20.034;2023-03-23T10:18:12;10.25;;;7.00;;
53401;SDS011;39295;45.534;20.034;2023-03-23T10:20:51;8.73;;;6.65;;
53401;SDS011;39295;45.534;20.034;2023-03-23T10:28:42;8.75;;;6.20;;
53401;SDS011;39295;45.534;20.034;2023-03-23T10:31:10;10.30;;;5.68;;
53401;SDS011;39295;45.534;20.034;2023-03-23T10:33:41;7.97;;;6.60;;
53401;SDS011;39295;45.534;20.034;2023-03-23T10:41:19;11.05;;;6.32;;
53401;SDS011;39295;45.534;20.034;2023-03-23T10:43:46;8.43;;;5.63;;
53401;SDS011;39295;45.534;20.034;2023-03-23T10:49:02;12.40;;;7.65;;
53401;SDS011;39295;45.534;20.034;2023-03-23T10:51:33;9.15;;;6.20;;
53401;SDS011;39295;45.534;20.034;2023-03-23T10:54:01;10.07;;;6.57;;
53401;SDS011;39295;45.534;20.034;2023-03-23T10:56:28;22.48;;;14.25;;
53401;SDS011;39295;45.534;20.034;2023-03-23T10:59:10;16.08;;;8.73;;
53401;SDS011;39295;45.534;20.034;2023-03-23T11:01:36;12.27;;;6.72;;
53401;SDS011;39295;45.534;20.034;2023-03-23T11:04:02;11.70;;;6.90;;
53401;SDS011;39295;45.534;20.034;2023-03-23T11:06:29;12.05;;;7.57;;
53401;SDS011;39295;45.534;20.034;2023-03-23T11:08:58;11.38;;;7.95;;
53401;SDS011;39295;45.534;20.034;2023-03-23T11:11:27;11.32;;;7.35;;
53401;SDS011;39295;45.534;20.034;2023-03-23T11:14:12;12.07;;;7.97;;
53401;SDS011;39295;45.534;20.034;2023-03-23T11:16:43;11.13;;;8.25;;
53401;SDS011;39295;45.534;20.034;2023-03-23T11:19:13;16.38;;;7.95;;
53401;SDS011;39295;45.534;20.034;2023-03-23T11:21:40;12.85;;;7.30;;
53401;SDS011;39295;45.534;20.034;2023-03-23T11:24:07;13.40;;;7.18;;
53401;SDS011;39295;45.534;20.034;2023-03-23T11:26:34;11.70;;;6.50;;
53401;SDS011;39295;45.534;20.034;2023-03-23T11:29:09;9.85;;;6.00;;
53401;SDS011;39295;45.534;20.034;2023-03-23T11:31:46;9.57;;;6.75;;
53401;SDS011;39295;45.534;20.034;2023-03-23T11:36:53;8.15;;;6.95;;
53401;SDS011;39295;45.534;20.034;2023-03-23T11:39:25;8.40;;;6.03;;
53401;SDS011;39295;45.534;20.034;2023-03-23T11:41:52;11.63;;;6.25;;
53401;SDS011;39295;45.534;20.034;2023-03-23T11:44:19;10.68;;;7.43;;
53401;SDS011;39295;45.534;20.034;2023-03-23T11:46:58;10.77;;;6.88;;
53401;SDS011;39295;45.534;20.034;2023-03-23T11:51:54;8.60;;;6.30;;
53401;SDS011;39295;45.534;20.034;2023-03-23T11:54:35;9.27;;;6.18;;
53401;SDS011;39295;45.534;20.034;2023-03-23T11:57:06;11.68;;;5.85;;
53401;SDS011;39295;45.534;20.034;2023-03-23T11:59:33;9.75;;;6.55;;
53401;SDS011;39295;45.534;20.034;2023-03-23T12:17:56;8.27;;;5.20;;
53401;SDS011;39295;45.534;20.034;2023-03-23T12:23:12;6.88;;;5.22;;
53401;SDS011;39295;45.534;20.034;2023-03-23T12:33:19;7.03;;;5.85;;
53401;SDS011;39295;45.534;20.034;2023-03-23T12:36:09;13.98;;;6.68;;
53401;SDS011;39295;45.534;20.034;2023-03-23T12:41:20;10.93;;;5.20;;
53401;SDS011;39295;45.534;20.034;2023-03-23T12:43:52;9.25;;;4.82;;
53401;SDS011;39295;45.534;20.034;2023-03-23T12:46:32;10.98;;;5.05;;
53401;SDS011;39295;45.534;20.034;2023-03-23T12:49:13;5.70;;;4.85;;
53401;SDS011;39295;45.534;20.034;2023-03-23T12:52:01;16.80;;;8.35;;
53401;SDS011;39295;45.534;20.034;2023-03-23T12:54:32;26.67;;;15.00;;
53401;SDS011;39295;45.534;20.034;2023-03-23T12:59:39;10.75;;;6.75;;
53401;SDS011;39295;45.534;20.034;2023-03-23T13:02:29;15.90;;;9.05;;
53401;SDS011;39295;45.534;20.034;2023-03-23T13:05:24;13.77;;;9.63;;
53401;SDS011;39295;45.534;20.034;2023-03-23T13:07:43;9.77;;;6.47;;
53401;SDS011;39295;45.534;20.034;2023-03-23T13:10:25;11.73;;;6.13;;
53401;SDS011;39295;45.534;20.034;2023-03-23T13:12:52;8.30;;;5.73;;
53401;SDS011;39295;45.534;20.034;2023-03-23T13:28:14;10.23;;;6.30;;
53401;SDS011;39295;45.534;20.034;2023-03-23T13:30:40;10.00;;;5.93;;
53401;SDS011;39295;45.534;20.034;2023-03-23T13:33:06;13.25;;;6.65;;
53401;SDS011;39295;45.534;20.034;2023-03-23T13:35:38;9.57;;;5.68;;
53401;SDS011;39295;45.534;20.034;2023-03-23T13:38:17;7.95;;;5.53;;
53401;SDS011;39295;45.534;20.034;2023-03-23T13:40:44;8.02;;;5.35;;
53401;SDS011;39295;45.534;20.034;2023-03-23T13:43:10;6.05;;;5.38;;
53401;SDS011;39295;45.534;20.034;2023-03-23T13:45:43;10.30;;;6.47;;
53401;SDS011;39295;45.534;20.034;2023-03-23T13:50:49;8.10;;;5.75;;
53401;SDS011;39295;45.534;20.034;2023-03-23T13:53:22;8.88;;;5.95;;
53401;SDS011;39295;45.534;20.034;2023-03-23T13:56:07;7.80;;;5.15;;
53401;SDS011;39295;45.534;20.034;2023-03-23T13:58:45;13.35;;;5.07;;
53401;SDS011;39295;45.534;20.034;2023-03-23T14:01:13;8.48;;;5.97;;
53401;SDS011;39295;45.534;20.034;2023-03-23T14:03:42;7.30;;;5.10;;
53401;SDS011;39295;45.534;20.034;2023-03-23T14:06:15;7.32;;;4.70;;
53401;SDS011;39295;45.534;20.034;2023-03-23T14:08:45;13.75;;;6.53;;
53401;SDS011;39295;45.534;20.034;2023-03-23T14:11:15;9.40;;;5.88;;
53401;SDS011;39295;45.534;20.034;2023-03-23T14:18:48;17.00;;;5.75;;
53401;SDS011;39295;45.534;20.034;2023-03-23T14:23:41;9.50;;;6.05;;
53401;SDS011;39295;45.534;20.034;2023-03-23T14:26:12;9.73;;;6.22;;
53401;SDS011;39295;45.534;20.034;2023-03-23T14:28:41;13.05;;;6.15;;
53401;SDS011;39295;45.534;20.034;2023-03-23T14:31:22;15.60;;;6.78;;
53401;SDS011;39295;45.534;20.034;2023-03-23T14:33:49;11.30;;;7.43;;
53401;SDS011;39295;45.534;20.034;2023-03-23T14:36:19;17.17;;;8.13;;
53401;SDS011;39295;45.534;20.034;2023-03-23T14:38:45;12.35;;;7.15;;
53401;SDS011;39295;45.534;20.034;2023-03-23T14:41:12;11.13;;;5.82;;
53401;SDS011;39295;45.534;20.034;2023-03-23T14:43:38;15.52;;;7.47;;
53401;SDS011;39295;45.534;20.034;2023-03-23T14:46:07;13.52;;;6.70;;
53401;SDS011;39295;45.534;20.034;2023-03-23T14:48:34;11.45;;;7.10;;
53401;SDS011;39295;45.534;20.034;2023-03-23T14:51:03;19.98;;;7.30;;
53401;SDS011;39295;45.534;20.034;2023-03-23T14:53:35;12.82;;;7.22;;
53401;SDS011;39295;45.534;20.034;2023-03-23T14:56:04;10.75;;;6.53;;
53401;SDS011;39295;45.534;20.034;2023-03-23T14:58:32;11.05;;;7.28;;
53401;SDS011;39295;45.534;20.034;2023-03-23T15:00:59;10.25;;;6.80;;
53401;SDS011;39295;45.534;20.034;2023-03-23T15:03:26;13.85;;;8.05;;
53401;SDS011;39295;45.534;20.034;2023-03-23T15:05:56;9.43;;;6.90;;
53401;SDS011;39295;45.534;20.034;2023-03-23T15:08:30;9.00;;;6.13;;
53401;SDS011;39295;45.534;20.034;2023-03-23T15:11:07;6.43;;;5.25;;
53401;SDS011;39295;45.534;20.034;2023-03-23T15:13:34;10.25;;;5.85;;
53401;SDS011;39295;45.534;20.034;2023-03-23T15:16:01;8.48;;;5.80;;
53401;SDS011;39295;45.534;20.034;2023-03-23T15:18:33;11.70;;;6.25;;
53401;SDS011;39295;45.534;20.034;2023-03-23T15:21:07;11.27;;;5.57;;
53401;SDS011;39295;45.534;20.034;2023-03-23T15:23:33;10.85;;;6.50;;
53401;SDS011;39295;45.534;20.034;2023-03-23T15:26:02;10.68;;;5.88;;
53401;SDS011;39295;45.534;20.034;2023-03-23T15:28:30;39.78;;;7.88;;
53401;SDS011;39295;45.534;20.034;2023-03-23T15:31:00;15.63;;;6.00;;
53401;SDS011;39295;45.534;20.034;2023-03-23T15:33:33;11.77;;;6.53;;
53401;SDS011;39295;45.534;20.034;2023-03-23T15:35:59;12.32;;;6.40;;
53401;SDS011;39295;45.534;20.034;2023-03-23T15:38:31;9.32;;;5.82;;
53401;SDS011;39295;45.534;20.034;2023-03-23T15:40:59;10.60;;;6.55;;
53401;SDS011;39295;45.534;20.034;2023-03-23T15:43:27;11.30;;;6.57;;
53401;SDS011;39295;45.534;20.034;2023-03-23T15:45:57;14.45;;;7.82;;
53401;SDS011;39295;45.534;20.034;2023-03-23T15:48:28;13.90;;;7.55;;
53401;SDS011;39295;45.534;20.034;2023-03-23T15:50:54;16.15;;;7.35;;
53401;SDS011;39295;45.534;20.034;2023-03-23T15:55:49;13.95;;;5.78;;
53401;SDS011;39295;45.534;20.034;2023-03-23T15:58:15;10.98;;;6.20;;
53401;SDS011;39295;45.534;20.034;2023-03-23T16:00:42;13.65;;;7.20;;
53401;SDS011;39295;45.534;20.034;2023-03-23T16:03:11;14.13;;;7.93;;
53401;SDS011;39295;45.534;20.034;2023-03-23T16:05:38;9.98;;;6.72;;
53401;SDS011;39295;45.534;20.034;2023-03-23T16:08:04;22.98;;;7.25;;
53401;SDS011;39295;45.534;20.034;2023-03-23T16:10:30;11.55;;;6.95;;
53401;SDS011;39295;45.534;20.034;2023-03-23T16:12:56;11.20;;;7.90;;
53401;SDS011;39295;45.534;20.034;2023-03-23T16:15:22;17.63;;;10.02;;
53401;SDS011;39295;45.534;20.034;2023-03-23T16:17:48;19.92;;;10.90;;
53401;SDS011;39295;45.534;20.034;2023-03-23T16:20:16;19.10;;;10.35;;
53401;SDS011;39295;45.534;20.034;2023-03-23T16:22:46;16.58;;;10.38;;
53401;SDS011;39295;45.534;20.034;2023-03-23T16:25:13;18.88;;;10.23;;
53401;SDS011;39295;45.534;20.034;2023-03-23T16:27:39;17.45;;;10.88;;
53401;SDS011;39295;45.534;20.034;2023-03-23T16:30:25;16.88;;;10.40;;